Time;durP1;ratioP1;P1;durP2;ratioP2;P2;SDS_P1;SDS_P2;PMS_P1;PMS_P2;Temp;Humidity;BMP_temperature;BMP_pressure;BME280_temperature;BME280_humidity;BME280_pressure;Samples;Min_cycle;Max_cycle;Signal;HPM_P1;HPM_P2
2022/07/06 00:02:14;;;;;;;;;;;26.60;60.60;;;;;;5043485;28;87030;-42
2022/07/06 00:04:40;;;;;;;;;;;26.60;60.60;;;;;;5043376;28;88127;-42
2022/07/06 00:07:05;;;;;;;;;;;26.60;60.60;;;;;;5042927;28;88033;-42
2022/07/06 00:09:31;;;;;;;;;;;26.50;60.50;;;;;;5043846;28;86302;-41
2022/07/06 00:11:57;;;;;;;;;;;26.50;60.60;;;;;;5043347;27;86935;-43
2022/07/06 00:14:22;;;;;;;;;;;26.50;60.60;;;;;;5042927;28;87228;-43
2022/07/06 00:16:48;;;;;;;;;;;26.50;60.70;;;;;;5042438;28;88415;-42
2022/07/06 00:19:13;;;;;;;;;;;26.50;60.70;;;;;;5044818;28;88290;-41
2022/07/06 00:21:39;;;;;;;;;;;26.50;60.70;;;;;;5043105;28;87080;-42
2022/07/06 00:24:04;;;;;;;;;;;26.50;60.80;;;;;;5043230;28;87504;-42
2022/07/06 00:26:30;;;;;;;;;;;26.50;60.80;;;;;;5042632;28;87645;-44
2022/07/06 00:28:55;;;;;;;;;;;26.40;60.80;;;;;;5043161;28;87099;-42
2022/07/06 00:31:21;;;;;;;;;;;26.40;60.80;;;;;;5043054;27;87321;-42
2022/07/06 00:33:46;;;;;;;;;;;26.40;60.90;;;;;;5043392;28;87481;-43
2022/07/06 00:36:12;;;;;;;;;;;26.30;60.80;;;;;;5043000;28;87221;-43
2022/07/06 00:38:37;;;;;;;;;;;26.30;60.70;;;;;;5042933;27;87012;-42
2022/07/06 00:41:03;;;;;;;;;;;26.30;60.80;;;;;;5044993;28;89009;-42
2022/07/06 00:43:28;;;;;;;;;;;26.30;60.80;;;;;;5043138;27;88284;-42
2022/07/06 00:45:54;;;;;;;;;;;26.30;60.80;;;;;;5042061;28;88224;-42
2022/07/06 00:48:19;;;;;;;;;;;26.30;60.80;;;;;;5042878;28;87144;-42
2022/07/06 00:50:45;;;;;;;;;;;26.30;60.90;;;;;;5043104;28;86952;-43
2022/07/06 00:53:12;;;;;;;;;;;26.20;60.90;;;;;;5042355;28;87253;-42
2022/07/06 00:55:41;;;;;;;;;;;26.20;60.80;;;;;;5042776;28;87083;-41
2022/07/06 00:58:07;;;;;;;;;;;26.20;60.90;;;;;;5042970;27;87233;-42
2022/07/06 01:00:33;;;;;;;;;;;26.20;60.80;;;;;;5042201;28;88126;-42
2022/07/06 01:02:59;;;;;;;;;;;26.20;61.00;;;;;;5045616;28;87122;-42
2022/07/06 01:05:24;;;;;;;;;;;26.20;60.90;;;;;;5041512;28;88815;-42
2022/07/06 01:07:52;;;;;;;;;;;26.10;60.90;;;;;;5042748;28;87025;-42
2022/07/06 01:10:19;;;;;;;;;;;26.20;60.90;;;;;;5042639;27;86986;-42
2022/07/06 01:12:45;;;;;;;;;;;26.10;60.90;;;;;;5042250;28;88065;-42
2022/07/06 01:15:29;;;;;;;;;;;26.10;61.50;;;;;;5042436;28;87155;-42
2022/07/06 01:17:54;;;;;;;;;;;26.10;60.90;;;;;;5042585;27;87230;-42
2022/07/06 01:20:23;;;;;;;;;;;26.10;61.00;;;;;;5041684;28;89685;-42
2022/07/06 01:22:50;;;;;;;;;;;26.10;60.90;;;;;;5042976;28;86377;-42
2022/07/06 01:25:16;;;;;;;;;;;26.00;60.90;;;;;;5045158;27;87009;-42
2022/07/06 01:27:42;;;;;;;;;;;26.10;61.00;;;;;;5042317;28;87067;-42
2022/07/06 01:30:09;;;;;;;;;;;26.00;61.00;;;;;;5042254;28;87938;-42
2022/07/06 01:32:35;;;;;;;;;;;26.00;61.00;;;;;;5045719;28;87943;-42
2022/07/06 01:35:00;;;;;;;;;;;26.00;61.10;;;;;;5045987;28;86997;-43
2022/07/06 01:37:26;;;;;;;;;;;26.00;61.00;;;;;;5045706;27;88754;-42
2022/07/06 01:39:52;;;;;;;;;;;26.00;61.00;;;;;;5045417;28;88247;-42
2022/07/06 01:42:17;;;;;;;;;;;25.90;61.00;;;;;;5046119;28;87156;-42
2022/07/06 01:44:46;;;;;;;;;;;25.90;60.90;;;;;;5047740;27;87218;-43
2022/07/06 01:47:11;;;;;;;;;;;25.90;61.00;;;;;;5046030;28;86423;-43
2022/07/06 01:49:37;;;;;;;;;;;25.90;61.00;;;;;;5045611;27;87046;-42
2022/07/06 01:52:02;;;;;;;;;;;25.90;61.10;;;;;;5045260;28;88182;-42
2022/07/06 01:54:28;;;;;;;;;;;25.90;61.10;;;;;;5045020;28;88255;-42
2022/07/06 01:56:53;;;;;;;;;;;25.90;61.10;;;;;;5045588;28;88300;-42
2022/07/06 01:59:19;;;;;;;;;;;25.80;61.10;;;;;;5045248;28;87833;-42
2022/07/06 02:01:44;;;;;;;;;;;25.80;61.10;;;;;;5045563;28;87233;-42
2022/07/06 02:04:10;;;;;;;;;;;25.80;61.10;;;;;;5045130;28;87024;-40
2022/07/06 02:06:35;;;;;;;;;;;25.80;61.10;;;;;;5047938;28;88054;-42
2022/07/06 02:09:01;;;;;;;;;;;25.70;61.10;;;;;;5045469;28;87339;-42
2022/07/06 02:11:27;;;;;;;;;;;25.70;61.10;;;;;;5045462;28;87181;-42
2022/07/06 02:13:53;;;;;;;;;;;25.70;61.10;;;;;;5045305;28;87082;-42
2022/07/06 02:16:19;;;;;;;;;;;25.70;61.10;;;;;;5045414;27;87501;-40
2022/07/06 02:18:44;;;;;;;;;;;25.70;61.10;;;;;;5043531;28;89259;-42
2022/07/06 02:21:10;;;;;;;;;;;25.70;61.20;;;;;;5045203;28;87096;-42
2022/07/06 02:23:35;;;;;;;;;;;25.70;61.20;;;;;;5045089;28;87527;-42
2022/07/06 02:26:01;;;;;;;;;;;25.70;61.20;;;;;;5044419;28;89302;-42
2022/07/06 02:28:26;;;;;;;;;;;25.70;61.20;;;;;;5047583;28;86990;-42
2022/07/06 02:30:52;;;;;;;;;;;25.60;61.10;;;;;;5044657;28;87283;-42
2022/07/06 02:33:17;;;;;;;;;;;25.60;61.20;;;;;;5044426;28;87171;-42
2022/07/06 02:35:43;;;;;;;;;;;25.60;61.20;;;;;;5045511;28;87255;-41
2022/07/06 02:38:09;;;;;;;;;;;25.60;61.30;;;;;;5044444;28;88067;-42
2022/07/06 02:40:35;;;;;;;;;;;25.50;61.20;;;;;;5044678;28;87098;-42
2022/07/06 02:43:00;;;;;;;;;;;25.50;61.20;;;;;;5043269;27;87908;-42
2022/07/06 02:45:26;;;;;;;;;;;25.50;61.30;;;;;;5043786;28;88113;-42
2022/07/06 02:47:53;;;;;;;;;;;25.50;61.30;;;;;;5044833;28;86989;-42
2022/07/06 02:50:18;;;;;;;;;;;25.50;61.20;;;;;;5047215;27;88581;-41
2022/07/06 02:52:44;;;;;;;;;;;25.40;61.20;;;;;;5044811;28;87139;-42
2022/07/06 02:55:09;;;;;;;;;;;25.40;61.20;;;;;;5044679;28;87429;-41
2022/07/06 02:57:35;;;;;;;;;;;25.40;61.30;;;;;;5044226;28;87107;-41
2022/07/06 03:00:00;;;;;;;;;;;25.40;61.40;;;;;;5044843;28;86447;-42
2022/07/06 03:02:26;;;;;;;;;;;25.40;61.30;;;;;;5044568;28;87374;-41
2022/07/06 03:04:51;;;;;;;;;;;25.40;61.20;;;;;;5044046;28;88185;-42
2022/07/06 03:07:17;;;;;;;;;;;25.40;61.30;;;;;;5043696;28;88118;-42
2022/07/06 03:09:42;;;;;;;;;;;25.30;61.40;;;;;;5044518;28;88538;-42
2022/07/06 03:12:08;;;;;;;;;;;25.30;61.40;;;;;;5046841;28;88017;-42
2022/07/06 03:14:33;;;;;;;;;;;25.30;61.40;;;;;;5044245;27;87419;-42
2022/07/06 03:16:59;;;;;;;;;;;25.30;61.40;;;;;;5043868;28;87970;-42
2022/07/06 03:19:24;;;;;;;;;;;25.30;61.40;;;;;;5043967;28;87099;-42
2022/07/06 03:21:50;;;;;;;;;;;25.30;61.40;;;;;;5044287;28;87454;-42
2022/07/06 03:24:15;;;;;;;;;;;25.20;61.40;;;;;;5044504;28;86235;-42
2022/07/06 03:26:41;;;;;;;;;;;25.20;61.30;;;;;;5044009;28;87212;-42
2022/07/06 03:29:06;;;;;;;;;;;25.20;61.40;;;;;;5044134;27;87017;-42
2022/07/06 03:31:32;;;;;;;;;;;25.20;61.40;;;;;;5043171;28;88874;-41
2022/07/06 03:33:57;;;;;;;;;;;25.20;61.40;;;;;;5046794;28;87377;-43
2022/07/06 03:36:23;;;;;;;;;;;25.20;61.40;;;;;;5043689;28;88091;-42
2022/07/06 03:38:48;;;;;;;;;;;25.20;61.40;;;;;;5043800;28;87094;-43
2022/07/06 03:41:14;;;;;;;;;;;25.10;61.40;;;;;;5044118;28;87425;-42
2022/07/06 03:43:39;;;;;;;;;;;25.10;61.40;;;;;;5043528;28;88108;-42
2022/07/06 03:46:05;;;;;;;;;;;25.10;61.50;;;;;;5043694;28;87167;-42
2022/07/06 03:48:30;;;;;;;;;;;25.10;61.50;;;;;;5044209;28;87453;-42
2022/07/06 03:50:56;;;;;;;;;;;25.10;61.50;;;;;;5043368;28;88135;-42
2022/07/06 03:53:21;;;;;;;;;;;25.00;61.50;;;;;;5046790;27;87065;-42
2022/07/06 03:56:27;;;;;;;;;;;25.00;61.40;;;;;;5042518;28;88968;-42
2022/07/06 03:58:33;;;;;;;;;;;25.00;61.50;;;;;;5042688;28;86977;-42
2022/07/06 04:00:58;;;;;;;;;;;25.00;61.40;;;;;;5043830;27;87549;-42
2022/07/06 04:03:24;;;;;;;;;;;25.00;61.50;;;;;;5043096;28;87545;-42
2022/07/06 04:05:49;;;;;;;;;;;25.00;61.50;;;;;;5043863;28;88169;-42
2022/07/06 04:08:15;;;;;;;;;;;25.00;61.60;;;;;;5043648;28;87413;-42
2022/07/06 04:10:40;;;;;;;;;;;25.00;61.60;;;;;;5041599;28;91186;-42
2022/07/06 04:13:06;;;;;;;;;;;25.00;61.60;;;;;;5043910;28;86440;-42
2022/07/06 04:15:31;;;;;;;;;;;25.00;61.60;;;;;;5046183;28;87023;-42
2022/07/06 04:17:57;;;;;;;;;;;25.00;61.50;;;;;;5043310;28;87129;-43
2022/07/06 04:20:24;;;;;;;;;;;24.90;61.60;;;;;;5042638;27;88814;-42
2022/07/06 04:22:50;;;;;;;;;;;24.90;61.60;;;;;;5042903;28;88057;-43
2022/07/06 04:25:15;;;;;;;;;;;24.90;61.50;;;;;;5043456;28;86961;-42
2022/07/06 04:27:41;;;;;;;;;;;24.90;61.70;;;;;;5043531;27;87516;-42
2022/07/06 04:30:07;;;;;;;;;;;24.80;61.60;;;;;;5042714;28;88147;-42
2022/07/06 04:32:32;;;;;;;;;;;24.90;61.60;;;;;;5042840;28;87108;-42
2022/07/06 04:34:58;;;;;;;;;;;24.80;61.60;;;;;;5043291;27;87491;-42
2022/07/06 04:37:24;;;;;;;;;;;24.80;61.60;;;;;;5045849;28;88681;-42
2022/07/06 04:39:49;;;;;;;;;;;24.80;61.70;;;;;;5042783;27;88057;-42
2022/07/06 04:42:15;;;;;;;;;;;24.80;61.60;;;;;;5042616;28;88340;-42
2022/07/06 04:44:40;;;;;;;;;;;24.80;61.60;;;;;;5042040;28;88105;-42
2022/07/06 04:47:06;;;;;;;;;;;24.80;61.70;;;;;;5042597;28;88400;-41
2022/07/06 04:49:31;;;;;;;;;;;24.80;61.70;;;;;;5042788;28;87884;-42
2022/07/06 04:51:57;;;;;;;;;;;24.80;61.60;;;;;;5042575;28;87011;-42
2022/07/06 04:54:23;;;;;;;;;;;24.80;61.60;;;;;;5042825;27;87688;-46
2022/07/06 04:56:48;;;;;;;;;;;24.80;61.60;;;;;;5042555;28;88013;-42
2022/07/06 04:59:14;;;;;;;;;;;24.80;61.60;;;;;;5045679;28;87254;-42
2022/07/06 05:01:40;;;;;;;;;;;24.80;61.60;;;;;;5042687;28;87680;-43
2022/07/06 05:04:06;;;;;;;;;;;24.80;61.60;;;;;;5042334;28;87078;-42
2022/07/06 05:06:32;;;;;;;;;;;24.70;61.60;;;;;;5042378;27;86878;-42
2022/07/06 05:08:59;;;;;;;;;;;24.80;61.60;;;;;;5041593;28;88691;-42
2022/07/06 05:11:25;;;;;;;;;;;24.70;61.70;;;;;;5042197;28;87524;-43
2022/07/06 05:13:50;;;;;;;;;;;24.70;61.70;;;;;;5042565;27;87279;-42
2022/07/06 05:16:16;;;;;;;;;;;24.70;61.80;;;;;;5042316;28;88121;-42
2022/07/06 05:18:41;;;;;;;;;;;24.70;61.80;;;;;;5042229;28;87473;-42
2022/07/06 05:21:07;;;;;;;;;;;24.60;61.70;;;;;;5045147;28;86997;-42
2022/07/06 05:23:32;;;;;;;;;;;24.60;61.70;;;;;;5042571;28;87112;-42
2022/07/06 05:25:58;;;;;;;;;;;24.60;61.70;;;;;;5042991;28;87329;-43
2022/07/06 05:28:23;;;;;;;;;;;24.60;61.80;;;;;;5041931;28;88300;-42
2022/07/06 05:30:49;;;;;;;;;;;24.60;61.70;;;;;;5042416;28;86911;-42
2022/07/06 05:33:14;;;;;;;;;;;24.60;61.70;;;;;;5041778;27;87931;-42
2022/07/06 05:35:40;;;;;;;;;;;24.60;61.80;;;;;;5042028;28;88039;-42
2022/07/06 05:38:05;;;;;;;;;;;24.50;61.70;;;;;;5042271;28;86891;-43
2022/07/06 05:40:31;;;;;;;;;;;24.50;61.70;;;;;;5044572;27;88149;-42
2022/07/06 05:42:56;;;;;;;;;;;24.60;61.90;;;;;;5042151;28;87133;-42
2022/07/06 05:45:22;;;;;;;;;;;24.50;61.70;;;;;;5041640;28;87486;-42
2022/07/06 05:50:32;;;;;;;;;;;24.50;61.60;;;;;;5042882;28;86254;-43
2022/07/06 05:52:59;;;;;;;;;;;24.50;61.70;;;;;;5042180;27;87072;-42
2022/07/06 05:55:25;;;;;;;;;;;24.50;61.70;;;;;;5041713;28;87801;-42
2022/07/06 05:57:50;;;;;;;;;;;24.50;61.70;;;;;;5041443;28;88149;-42
2022/07/06 06:00:16;;;;;;;;;;;24.50;61.70;;;;;;5041826;28;88551;-42
2022/07/06 06:02:42;;;;;;;;;;;24.50;61.70;;;;;;5044547;28;87950;-43
2022/07/06 06:05:08;;;;;;;;;;;24.40;61.80;;;;;;5041904;27;87938;-42
2022/07/06 06:22:44;;;;;;;;;;;24.40;61.30;;;;;;5044915;28;80232;-43
2022/07/06 06:25:09;;;;;;;;;;;24.30;62.10;;;;;;5043876;27;79892;-43
2022/07/06 06:27:35;;;;;;;;;;;24.30;62.10;;;;;;5043722;28;80996;-44
2022/07/06 06:30:00;;;;;;;;;;;24.30;62.10;;;;;;5043614;28;81274;-44
2022/07/06 06:32:25;;;;;;;;;;;24.30;62.10;;;;;;5043927;28;80323;-44
2022/07/06 06:34:51;;;;;;;;;;;24.30;62.00;;;;;;5043773;28;80138;-43
2022/07/06 06:37:16;;;;;;;;;;;24.30;62.00;;;;;;5043586;28;81316;-43
2022/07/06 06:39:42;;;;;;;;;;;24.30;62.10;;;;;;5043805;28;80306;-44
2022/07/06 06:42:07;;;;;;;;;;;24.30;62.20;;;;;;5046125;28;80774;-43
2022/07/06 06:44:33;;;;;;;;;;;24.30;62.20;;;;;;5043264;28;80641;-43
2022/07/06 06:46:58;;;;;;;;;;;24.30;62.10;;;;;;5043001;28;82210;-43
2022/07/06 06:49:24;;;;;;;;;;;24.30;62.10;;;;;;5043444;28;81460;-43
2022/07/06 06:51:49;;;;;;;;;;;24.20;62.20;;;;;;5042968;28;80228;-43
2022/07/06 06:54:15;;;;;;;;;;;24.30;62.20;;;;;;5043482;28;80535;-44
2022/07/06 06:56:41;;;;;;;;;;;24.30;62.10;;;;;;5042918;27;82610;-43
2022/07/06 06:59:06;;;;;;;;;;;24.20;62.20;;;;;;5043233;27;80805;-44
2022/07/06 07:01:32;;;;;;;;;;;24.20;62.30;;;;;;5043248;28;80853;-43
2022/07/06 07:03:58;;;;;;;;;;;24.20;62.40;;;;;;5045752;27;82397;-43
2022/07/06 07:06:24;;;;;;;;;;;24.20;62.30;;;;;;5043269;27;80646;-43
2022/07/06 07:08:49;;;;;;;;;;;24.20;62.30;;;;;;5043137;28;81351;-43
2022/07/06 07:11:15;;;;;;;;;;;24.20;62.90;;;;;;5042569;27;80297;-43
2022/07/06 07:13:40;;;;;;;;;;;24.20;62.40;;;;;;5043138;28;80722;-43
2022/07/06 07:16:06;;;;;;;;;;;24.20;62.40;;;;;;5042978;28;81045;-43
2022/07/06 07:18:31;;;;;;;;;;;24.20;62.40;;;;;;5042852;27;80485;-44
2022/07/06 07:20:57;;;;;;;;;;;24.20;62.40;;;;;;5042424;28;82305;-43
2022/07/06 07:23:23;;;;;;;;;;;24.20;62.30;;;;;;5030570;28;81362;-44
2022/07/06 07:25:48;;;;;;;;;;;24.20;62.20;;;;;;5032120;28;80392;-44
2022/07/06 07:28:14;;;;;;;;;;;24.20;62.20;;;;;;5029125;28;80378;-43
2022/07/06 07:30:40;;;;;;;;;;;24.20;62.30;;;;;;5029355;28;80352;-44
2022/07/06 07:33:05;;;;;;;;;;;24.10;62.30;;;;;;5029174;28;82695;-43
2022/07/06 07:35:31;;;;;;;;;;;24.10;62.40;;;;;;5029235;28;81189;-43
2022/07/06 07:37:56;;;;;;;;;;;24.10;62.50;;;;;;5029294;28;80072;-45
2022/07/06 07:40:22;;;;;;;;;;;24.10;62.50;;;;;;5029185;28;81280;-43
2022/07/06 07:42:47;;;;;;;;;;;24.10;62.40;;;;;;5028823;28;82767;-43
2022/07/06 07:45:13;;;;;;;;;;;24.10;62.40;;;;;;5029120;28;80329;-44
2022/07/06 07:47:39;;;;;;;;;;;24.10;62.40;;;;;;5031414;28;82020;-43
2022/07/06 07:50:05;;;;;;;;;;;24.10;62.40;;;;;;5028920;28;81489;-43
2022/07/06 07:52:31;;;;;;;;;;;24.10;62.40;;;;;;5029091;28;80104;-43
2022/07/06 07:54:56;;;;;;;;;;;24.10;62.50;;;;;;5028868;28;80324;-43
2022/07/06 07:57:22;;;;;;;;;;;24.10;62.50;;;;;;5029070;28;80999;-44
2022/07/06 07:59:47;;;;;;;;;;;24.00;62.50;;;;;;5028700;28;80396;-43
2022/07/06 08:02:13;;;;;;;;;;;24.10;62.50;;;;;;5028342;28;82802;-43
2022/07/06 08:04:38;;;;;;;;;;;24.00;62.50;;;;;;5028889;28;80427;-43
2022/07/06 08:07:04;;;;;;;;;;;24.10;62.50;;;;;;5028799;28;80997;-43
2022/07/06 08:09:29;;;;;;;;;;;24.00;62.60;;;;;;5031304;28;81328;-44
2022/07/06 08:11:55;;;;;;;;;;;24.00;62.60;;;;;;5028487;28;80429;-43
2022/07/06 08:14:20;;;;;;;;;;;24.00;62.60;;;;;;5028443;28;81279;-43
2022/07/06 08:16:46;;;;;;;;;;;24.00;62.50;;;;;;5028188;28;80299;-43
2022/07/06 08:19:14;;;;;;;;;;;24.00;62.60;;;;;;5028837;28;80420;-44
2022/07/06 08:21:40;;;;;;;;;;;24.00;62.70;;;;;;5027621;28;81214;-43
2022/07/06 08:24:06;;;;;;;;;;;24.00;62.60;;;;;;5028498;28;80824;-43
2022/07/06 08:26:31;;;;;;;;;;;24.00;62.70;;;;;;5028624;28;80760;-43
2022/07/06 08:28:57;;;;;;;;;;;24.00;62.70;;;;;;5028292;28;80362;-43
2022/07/06 08:31:22;;;;;;;;;;;23.90;62.70;;;;;;5030686;28;80222;-43
2022/07/06 08:33:48;;;;;;;;;;;23.90;62.80;;;;;;5027207;28;81427;-43
2022/07/06 08:48:23;;;;;;;;;;;24.00;62.10;;;;;;5065117;27;80171;-50
2022/07/06 08:50:49;;;;;;;;;;;23.90;62.80;;;;;;5064399;27;80512;-50
2022/07/06 08:53:16;;;;;;;;;;;23.90;62.80;;;;;;5063812;27;82256;-53
2022/07/06 08:55:41;;;;;;;;;;;23.90;62.70;;;;;;5063855;27;81804;-49
2022/07/06 08:58:07;;;;;;;;;;;24.00;62.70;;;;;;5063758;27;80467;-50
2022/07/06 09:00:33;;;;;;;;;;;23.90;62.70;;;;;;5064171;27;80737;-50
2022/07/06 09:02:59;;;;;;;;;;;24.00;62.70;;;;;;5063584;27;81700;-51
2022/07/06 09:05:25;;;;;;;;;;;24.00;62.80;;;;;;5063774;27;80055;-52
2022/07/06 09:07:51;;;;;;;;;;;23.90;62.70;;;;;;5066416;27;81082;-51
2022/07/06 09:10:21;;;;;;;;;;;24.00;62.70;;;;;;5063792;27;80335;-53
2022/07/06 09:12:47;;;;;;;;;;;23.90;62.70;;;;;;5063675;27;80570;-52
2022/07/06 09:15:13;;;;;;;;;;;24.00;62.70;;;;;;5063806;27;81472;-54
2022/07/06 09:17:39;;;;;;;;;;;24.00;62.80;;;;;;5063755;27;80368;-51
2022/07/06 09:20:09;;;;;;;;;;;24.00;62.70;;;;;;5063736;27;80749;-52
2022/07/06 09:22:35;;;;;;;;;;;24.00;62.50;;;;;;5063222;27;82839;-52
2022/07/06 09:25:20;;;;;;;;;;;24.00;62.60;;;;;;5063767;27;80110;-52
2022/07/06 09:27:47;;;;;;;;;;;24.00;62.60;;;;;;5063016;27;80765;-54
2022/07/06 09:30:14;;;;;;;;;;;24.00;62.70;;;;;;5066212;27;80438;-51
2022/07/06 09:32:47;;;;;;;;;;;24.00;62.70;;;;;;5063244;27;82202;-51
2022/07/06 09:35:28;;;;;;;;;;;24.00;62.70;;;;;;5063084;27;82054;-50
2022/07/06 09:38:13;;;;;;;;;;;24.00;62.70;;;;;;5062911;27;80350;-53
2022/07/06 09:40:39;;;;;;;;;;;24.00;62.80;;;;;;5063184;27;82301;-52
2022/07/06 09:43:09;;;;;;;;;;;24.00;62.80;;;;;;5063305;27;81287;-49
2022/07/06 09:45:35;;;;;;;;;;;24.00;62.70;;;;;;5062907;27;81215;-49
2022/07/06 09:48:08;;;;;;;;;;;24.00;62.80;;;;;;5056702;27;80888;-52
2022/07/06 09:50:46;;;;;;;;;;;24.00;62.70;;;;;;5049461;28;81648;-52
2022/07/06 09:53:12;;;;;;;;;;;24.00;62.70;;;;;;5052392;27;80199;-52
2022/07/06 09:55:38;;;;;;;;;;;24.00;62.60;;;;;;5049513;27;81281;-52
2022/07/06 09:58:04;;;;;;;;;;;24.00;62.70;;;;;;5049434;28;80215;-49
2022/07/06 10:00:30;;;;;;;;;;;24.00;62.60;;;;;;5049638;27;80793;-51
2022/07/06 10:02:55;;;;;;;;;;;24.00;62.60;;;;;;5049283;27;81403;-50
2022/07/06 10:05:21;;;;;;;;;;;24.00;62.60;;;;;;5049651;28;81387;-50
2022/07/06 10:07:49;;;;;;;;;;;24.00;62.60;;;;;;5049334;27;80235;-50
2022/07/06 10:10:15;;;;;;;;;;;24.10;62.60;;;;;;5048949;28;80244;-51
2022/07/06 10:12:42;;;;;;;;;;;24.10;62.50;;;;;;5049243;27;80274;-50
2022/07/06 10:15:07;;;;;;;;;;;24.10;62.60;;;;;;5051827;27;80212;-50
2022/07/06 10:17:33;;;;;;;;;;;24.00;62.50;;;;;;5049243;27;80358;-51
2022/07/06 10:19:59;;;;;;;;;;;24.10;62.50;;;;;;5049131;28;80949;-51
2022/07/06 10:22:25;;;;;;;;;;;24.10;62.60;;;;;;5049011;28;81495;-50
2022/07/06 10:24:51;;;;;;;;;;;24.10;62.50;;;;;;5049114;28;80366;-50
2022/07/06 10:27:16;;;;;;;;;;;24.00;62.50;;;;;;5049053;28;81101;-50
2022/07/06 10:29:42;;;;;;;;;;;24.10;62.50;;;;;;5048586;28;81155;-52
2022/07/06 10:32:08;;;;;;;;;;;24.10;62.50;;;;;;5049156;28;81429;-51
2022/07/06 10:34:36;;;;;;;;;;;24.10;62.40;;;;;;5048933;27;80571;-53
2022/07/06 10:37:02;;;;;;;;;;;24.10;62.40;;;;;;5051045;27;81413;-51
2022/07/06 10:42:38;;;;;;;;;;;24.10;62.40;;;;;;5048795;28;80388;-51
2022/07/06 10:45:03;;;;;;;;;;;24.10;62.40;;;;;;5049017;27;80218;-52
2022/07/06 10:47:29;;;;;;;;;;;24.10;62.40;;;;;;5047989;27;82124;-54
2022/07/06 10:49:58;;;;;;;;;;;24.20;62.50;;;;;;5048660;28;81459;-52
2022/07/06 10:52:44;;;;;;;;;;;24.20;62.40;;;;;;5048465;27;80426;-53
2022/07/06 10:55:27;;;;;;;;;;;24.20;62.40;;;;;;5048356;28;80438;-51
2022/07/06 10:57:53;;;;;;;;;;;24.20;62.20;;;;;;5048217;27;82951;-50
2022/07/06 11:00:18;;;;;;;;;;;24.20;62.40;;;;;;5050391;27;80615;-51
2022/07/06 11:02:44;;;;;;;;;;;24.20;62.30;;;;;;5048390;27;81260;-50
2022/07/06 11:05:32;;;;;;;;;;;24.20;62.30;;;;;;5048147;28;80253;-51
2022/07/06 11:08:00;;;;;;;;;;;24.20;62.30;;;;;;5048284;28;80277;-52
2022/07/06 11:10:26;;;;;;;;;;;24.20;62.30;;;;;;5048264;27;80849;-51
2022/07/06 11:12:59;;;;;;;;;;;24.20;62.40;;;;;;5048329;28;80552;-53
2022/07/06 11:15:43;;;;;;;;;;;24.20;62.50;;;;;;5047911;27;82472;-51
2022/07/06 11:18:12;;;;;;;;;;;24.20;62.40;;;;;;5048317;27;81277;-51
2022/07/06 11:20:38;;;;;;;;;;;24.20;62.40;;;;;;5050668;27;80264;-49
2022/07/06 11:23:03;;;;;;;;;;;24.20;62.50;;;;;;5048134;28;81517;-50
2022/07/06 11:25:29;;;;;;;;;;;24.10;62.40;;;;;;5048329;28;80319;-51
2022/07/06 11:27:55;;;;;;;;;;;24.20;62.50;;;;;;5048021;27;82082;-50
2022/07/06 11:30:20;;;;;;;;;;;24.10;62.40;;;;;;5047984;28;80629;-50
2022/07/06 11:32:46;;;;;;;;;;;24.10;62.40;;;;;;5048019;28;80333;-53
2022/07/06 11:35:11;;;;;;;;;;;24.10;62.40;;;;;;5048217;27;80290;-50
2022/07/06 11:37:37;;;;;;;;;;;24.20;62.40;;;;;;5047509;28;81155;-52
2022/07/06 11:40:06;;;;;;;;;;;24.10;62.40;;;;;;5047762;28;80339;-51
2022/07/06 11:42:32;;;;;;;;;;;24.20;62.50;;;;;;5050209;27;81969;-52
2022/07/06 11:44:57;;;;;;;;;;;24.20;62.40;;;;;;5047695;28;80421;-52
2022/07/06 11:47:30;;;;;;;;;;;24.20;62.40;;;;;;5047454;28;80791;-54
2022/07/06 11:49:55;;;;;;;;;;;24.10;62.40;;;;;;5047728;28;80250;-51
2022/07/06 11:52:23;;;;;;;;;;;24.20;62.40;;;;;;5047954;28;80349;-52
2022/07/06 11:54:48;;;;;;;;;;;24.20;62.40;;;;;;5047647;27;82298;-50
2022/07/06 11:57:14;;;;;;;;;;;24.20;62.50;;;;;;5047273;28;81465;-49
2022/07/06 11:59:41;;;;;;;;;;;24.10;62.40;;;;;;5047574;27;80292;-51
2022/07/06 12:02:07;;;;;;;;;;;24.10;62.40;;;;;;5047617;28;80768;-49
2022/07/06 12:04:34;;;;;;;;;;;24.20;62.40;;;;;;5050298;28;80734;-50
2022/07/06 12:07:01;;;;;;;;;;;24.20;62.30;;;;;;5047417;27;80287;-50
2022/07/06 12:09:31;;;;;;;;;;;24.20;62.30;;;;;;5047187;27;82513;-51
2022/07/06 12:11:56;;;;;;;;;;;24.20;62.30;;;;;;5046893;27;80322;-50
2022/07/06 12:14:22;;;;;;;;;;;24.20;62.30;;;;;;5047620;28;80624;-48
2022/07/06 12:16:50;;;;;;;;;;;24.20;62.30;;;;;;5047144;28;81468;-50
2022/07/06 12:19:16;;;;;;;;;;;24.20;62.30;;;;;;5047519;27;80368;-51
2022/07/06 12:21:49;;;;;;;;;;;24.20;62.40;;;;;;5047359;28;80772;-50
2022/07/06 12:24:19;;;;;;;;;;;24.20;62.40;;;;;;5047196;28;81567;-51
2022/07/06 12:26:44;;;;;;;;;;;24.20;62.30;;;;;;5049661;28;80442;-50
2022/07/06 12:29:14;;;;;;;;;;;24.20;63.00;;;;;;5046780;27;82763;-50
2022/07/06 12:31:44;;;;;;;;;;;24.20;62.30;;;;;;5047074;27;80331;-50
2022/07/06 12:34:19;;;;;;;;;;;24.20;62.30;;;;;;5047269;28;80127;-50
2022/07/06 12:36:46;;;;;;;;;;;24.20;62.30;;;;;;5046579;28;80447;-51
2022/07/06 12:39:13;;;;;;;;;;;24.20;62.20;;;;;;5046970;27;80386;-51
2022/07/06 12:41:43;;;;;;;;;;;24.20;62.20;;;;;;5046944;27;81309;-51
2022/07/06 12:44:09;;;;;;;;;;;24.20;62.30;;;;;;5047002;27;81382;-53
2022/07/06 12:46:39;;;;;;;;;;;24.20;62.20;;;;;;5046429;27;80410;-50
2022/07/06 12:49:25;;;;;;;;;;;24.20;62.10;;;;;;5049310;28;82975;-49
2022/07/06 12:51:53;;;;;;;;;;;24.20;62.40;;;;;;5046526;27;80426;-54
2022/07/06 12:54:19;;;;;;;;;;;24.20;62.40;;;;;;5046939;27;81270;-51
2022/07/06 12:57:03;;;;;;;;;;;24.20;62.40;;;;;;5045543;27;82958;-51
2022/07/06 12:59:29;;;;;;;;;;;24.20;62.40;;;;;;5046213;28;81257;-50
2022/07/06 13:01:56;;;;;;;;;;;24.20;62.20;;;;;;5045688;27;82055;-52
2022/07/06 13:04:29;;;;;;;;;;;24.20;62.40;;;;;;5045179;27;83435;-50
2022/07/06 13:06:55;;;;;;;;;;;24.30;62.20;;;;;;5044747;27;83061;-50
2022/07/06 13:09:21;;;;;;;;;;;24.30;62.10;;;;;;5047842;27;82501;-53
2022/07/06 13:11:47;;;;;;;;;;;24.40;62.10;;;;;;5045241;27;82190;-53
2022/07/06 13:14:13;;;;;;;;;;;24.40;62.20;;;;;;5045766;27;82303;-51
2022/07/06 13:16:39;;;;;;;;;;;24.30;62.20;;;;;;5044944;27;84293;-50
2022/07/06 13:19:04;;;;;;;;;;;24.30;62.20;;;;;;5045343;27;82032;-49
2022/07/06 13:21:30;;;;;;;;;;;24.30;62.20;;;;;;5045598;28;82478;-52
2022/07/06 13:23:56;;;;;;;;;;;24.30;62.30;;;;;;5048486;28;82230;-51
2022/07/06 13:26:21;;;;;;;;;;;24.30;62.40;;;;;;5048728;27;82014;-51
2022/07/06 13:28:47;;;;;;;;;;;24.30;62.40;;;;;;5048877;28;82518;-50
2022/07/06 13:31:12;;;;;;;;;;;24.40;62.30;;;;;;5050740;28;83868;-51
2022/07/06 13:33:38;;;;;;;;;;;24.40;62.30;;;;;;5048524;27;84598;-52
2022/07/06 13:36:03;;;;;;;;;;;24.40;62.20;;;;;;5048485;27;82954;-52
2022/07/06 13:38:29;;;;;;;;;;;24.40;62.20;;;;;;5048241;27;82317;-50
2022/07/06 13:40:55;;;;;;;;;;;24.40;62.10;;;;;;5048315;27;83882;-51
2022/07/06 13:43:20;;;;;;;;;;;24.40;62.10;;;;;;5048372;27;83125;-51
2022/07/06 13:45:46;;;;;;;;;;;24.40;62.20;;;;;;5048553;28;82076;-51
2022/07/06 13:48:12;;;;;;;;;;;24.40;62.10;;;;;;5048657;28;81649;-53
2022/07/06 13:50:38;;;;;;;;;;;24.40;62.10;;;;;;5048355;27;82959;-50
2022/07/06 13:53:04;;;;;;;;;;;24.40;62.10;;;;;;5051191;27;82542;-50
2022/07/06 13:55:30;;;;;;;;;;;24.40;62.10;;;;;;5047563;27;83954;-49
2022/07/06 13:57:56;;;;;;;;;;;24.40;61.90;;;;;;5048339;27;82070;-52
2022/07/06 14:00:21;;;;;;;;;;;24.50;61.90;;;;;;5048139;27;83910;-50
2022/07/06 14:02:47;;;;;;;;;;;24.50;61.80;;;;;;5047821;27;82944;-50
2022/07/06 14:05:12;;;;;;;;;;;24.50;61.80;;;;;;5048212;27;81980;-51
2022/07/06 14:07:38;;;;;;;;;;;24.50;61.90;;;;;;5048282;27;82231;-49
2022/07/06 14:10:04;;;;;;;;;;;24.50;62.00;;;;;;5047926;28;82236;-51
2022/07/06 14:12:29;;;;;;;;;;;24.50;62.20;;;;;;5048865;27;81326;-51
2022/07/06 14:14:55;;;;;;;;;;;24.50;62.20;;;;;;5050826;28;82060;-54
2022/07/06 14:17:21;;;;;;;;;;;24.40;62.40;;;;;;5047920;28;82055;-50
2022/07/06 14:19:47;;;;;;;;;;;24.40;62.50;;;;;;5047394;27;82692;-51
2022/07/06 14:22:13;;;;;;;;;;;24.40;62.50;;;;;;5047703;28;83130;-52
2022/07/06 14:24:38;;;;;;;;;;;24.40;62.60;;;;;;5047934;28;82063;-51
2022/07/06 14:27:04;;;;;;;;;;;24.40;62.50;;;;;;5048062;28;82572;-48
2022/07/06 14:29:29;;;;;;;;;;;24.30;62.50;;;;;;5048009;27;82947;-50
2022/07/06 14:31:55;;;;;;;;;;;24.40;62.40;;;;;;5047781;28;82041;-49
2022/07/06 14:34:20;;;;;;;;;;;24.40;62.40;;;;;;5047606;28;82393;-49
2022/07/06 14:36:46;;;;;;;;;;;24.40;62.20;;;;;;5050413;27;81410;-51
2022/07/06 14:39:12;;;;;;;;;;;24.50;62.10;;;;;;5047678;28;82048;-50
2022/07/06 14:41:38;;;;;;;;;;;24.50;62.00;;;;;;5047540;27;82297;-53
2022/07/06 14:44:03;;;;;;;;;;;24.50;62.00;;;;;;5047307;27;83112;-51
2022/07/06 14:46:30;;;;;;;;;;;24.50;62.10;;;;;;5046986;28;84951;-52